createdAt,value
2022-12-26T00:02:00.477Z,4.90
2022-12-26T00:08:02.902Z,4.80
2022-12-26T00:14:09.164Z,4.60
2022-12-26T00:20:11.740Z,4.50
2022-12-26T00:26:17.901Z,4.40
2022-12-26T00:32:20.073Z,4.30
2022-12-26T00:38:22.163Z,4.30
2022-12-26T00:44:24.526Z,4.30
2022-12-26T00:50:31.166Z,4.20
2022-12-26T00:56:36.765Z,4.10
2022-12-26T01:02:39.073Z,4.00
2022-12-26T01:08:44.781Z,3.90
2022-12-26T01:14:47.045Z,3.80
2022-12-26T01:20:49.695Z,3.90
2022-12-26T01:26:51.949Z,3.90
2022-12-26T01:32:54.004Z,3.90
2022-12-26T01:38:56.409Z,3.90
2022-12-26T01:45:07.458Z,3.90
2022-12-26T01:51:09.956Z,3.90
2022-12-26T01:57:34.052Z,4.00
2022-12-26T02:03:57.720Z,4.00
2022-12-26T02:10:00.043Z,4.00
2022-12-26T02:16:03.880Z,4.00
2022-12-26T02:22:32.663Z,4.00
2022-12-26T02:28:51.414Z,4.10
2022-12-26T02:35:27.464Z,4.00
2022-12-26T02:42:01.541Z,4.00
2022-12-26T02:48:12.707Z,4.00
2022-12-26T02:54:55.129Z,3.90
2022-12-26T03:01:23.120Z,3.90
2022-12-26T03:07:48.845Z,3.80
2022-12-26T03:13:52.094Z,3.70
2022-12-26T03:20:02.571Z,3.70
2022-12-26T03:26:28.400Z,3.60
2022-12-26T03:32:43.048Z,3.50
2022-12-26T03:39:08.180Z,3.40
2022-12-26T03:45:39.626Z,3.30
2022-12-26T03:52:15.952Z,3.20
2022-12-26T03:59:02.902Z,3.10
2022-12-26T04:05:28.195Z,3.00
2022-12-26T04:11:49.567Z,3.10
2022-12-26T04:18:23.055Z,3.30
2022-12-26T04:24:48.287Z,3.40
2022-12-26T04:31:16.657Z,3.40
2022-12-26T04:37:43.358Z,3.40
2022-12-26T04:44:25.623Z,3.50
2022-12-26T04:50:27.941Z,3.50
2022-12-26T04:56:30.442Z,3.40
2022-12-26T05:02:51.323Z,3.10
2022-12-26T05:09:23.416Z,3.00
2022-12-26T05:15:25.816Z,2.90
2022-12-26T05:21:47.045Z,2.90
2022-12-26T05:28:08.177Z,2.80
2022-12-26T05:34:16.325Z,2.70
2022-12-26T05:40:18.573Z,2.80
2022-12-26T05:46:20.862Z,3.00
2022-12-26T05:52:23.362Z,2.90
2022-12-26T05:58:25.830Z,3.00
2022-12-26T06:04:27.906Z,3.00
2022-12-26T06:10:30.082Z,3.10
2022-12-26T06:16:32.332Z,3.20
2022-12-26T06:22:34.924Z,3.50
2022-12-26T06:28:37.515Z,3.70
2022-12-26T06:34:39.503Z,3.80
2022-12-26T06:40:42.214Z,3.90
2022-12-26T06:46:45.011Z,4.00
2022-12-26T06:52:47.305Z,4.10
2022-12-26T06:59:00.934Z,4.70
2022-12-26T07:05:02.933Z,4.90
2022-12-26T07:11:05.918Z,5.20
2022-12-26T07:17:10.454Z,6.20
2022-12-26T07:23:12.772Z,9.80
2022-12-26T07:29:16.177Z,14.40
2022-12-26T07:35:18.398Z,12.80
2022-12-26T07:41:39.308Z,11.10
2022-12-26T07:47:41.588Z,9.80
2022-12-26T07:53:43.727Z,11.40
2022-12-26T07:59:46.388Z,14.40
2022-12-26T08:05:49.562Z,16.60
2022-12-26T08:11:51.961Z,19.00
2022-12-26T08:17:54.497Z,15.50
2022-12-26T08:23:56.788Z,13.10
2022-12-26T08:29:58.988Z,11.90
2022-12-26T08:36:05.994Z,17.20
2022-12-26T08:42:08.576Z,17.30
2022-12-26T08:48:11.050Z,15.40
2022-12-26T08:54:13.251Z,14.30
2022-12-26T09:00:17.113Z,12.60
2022-12-26T09:06:19.416Z,12.00
2022-12-26T09:12:21.684Z,11.40
2022-12-26T09:18:24.037Z,10.90
2022-12-26T09:24:26.309Z,10.60
2022-12-26T09:30:28.516Z,10.50
2022-12-26T09:36:33.768Z,10.50
2022-12-26T09:42:42.430Z,10.40
2022-12-26T09:48:53.286Z,10.40
2022-12-26T09:55:00.113Z,10.10
2022-12-26T10:01:04.742Z,10.30
2022-12-26T10:07:28.435Z,10.50
2022-12-26T10:13:44.096Z,10.50
2022-12-26T10:20:24.259Z,10.70
2022-12-26T10:26:37.411Z,10.90
2022-12-26T10:32:52.267Z,11.40
2022-12-26T10:38:56.875Z,11.50
2022-12-26T10:45:01.045Z,11.60
2022-12-26T10:51:03.871Z,11.70
2022-12-26T10:57:08.995Z,12.10
2022-12-26T11:03:14.552Z,12.40
2022-12-26T11:09:40.059Z,12.40
2022-12-26T11:15:49.236Z,12.60
2022-12-26T11:21:51.372Z,12.90
2022-12-26T11:27:56.463Z,12.90
2022-12-26T11:33:59.802Z,13.00
2022-12-26T11:40:02.957Z,13.30
2022-12-26T11:46:05.307Z,13.20
2022-12-26T11:52:44.995Z,14.10
2022-12-26T11:58:47.404Z,14.90
2022-12-26T12:04:52.172Z,13.80
2022-12-26T12:11:10.532Z,12.60
2022-12-26T12:17:36.602Z,11.90
2022-12-26T12:23:53.700Z,11.80
2022-12-26T12:30:16.020Z,11.40
2022-12-26T12:36:29.773Z,11.30
2022-12-26T12:42:50.727Z,11.30
2022-12-26T12:48:52.927Z,11.10
2022-12-26T12:55:29.207Z,11.00
2022-12-26T13:01:39.675Z,11.10
2022-12-26T13:07:48.515Z,11.00
2022-12-26T13:14:01.362Z,10.90
2022-12-26T13:20:16.341Z,10.80
2022-12-26T13:26:22.782Z,10.70
2022-12-26T13:32:30.691Z,10.50
2022-12-26T13:39:00.141Z,10.30
2022-12-26T13:45:36.169Z,10.30
2022-12-26T13:51:47.744Z,10.10
2022-12-26T13:58:14.524Z,10.00
2022-12-26T14:05:01.663Z,9.80
2022-12-26T14:11:22.422Z,9.60
2022-12-26T14:17:48.514Z,9.50
2022-12-26T14:24:17.028Z,9.30
2022-12-26T14:30:19.337Z,9.20
2022-12-26T14:36:53.861Z,9.10
2022-12-26T14:43:11.847Z,8.90
2022-12-26T14:49:24.038Z,8.80
2022-12-26T14:55:50.010Z,8.70
2022-12-26T15:02:01.273Z,8.50
2022-12-26T15:08:34.271Z,8.40
2022-12-26T15:15:07.163Z,8.40
2022-12-26T15:21:46.733Z,8.30
2022-12-26T15:27:58.364Z,8.20
2022-12-26T15:34:06.409Z,8.10
2022-12-26T15:40:24.538Z,8.10
2022-12-26T15:46:28.043Z,8.00
2022-12-26T15:52:44.184Z,7.90
2022-12-26T15:59:24.013Z,7.70
2022-12-26T16:05:59.764Z,7.60
2022-12-26T16:12:02.404Z,7.50
2022-12-26T16:18:27.528Z,7.40
2022-12-26T16:24:29.838Z,7.40
2022-12-26T16:30:36.890Z,7.40
2022-12-26T16:36:39.979Z,7.40
2022-12-26T16:42:54.770Z,7.30
2022-12-26T16:48:59.977Z,7.20
2022-12-26T16:55:35.636Z,7.10
2022-12-26T17:01:38.493Z,7.10
2022-12-26T17:07:45.828Z,7.10
2022-12-26T17:13:54.108Z,7.00
2022-12-26T17:19:58.567Z,6.90
2022-12-26T17:26:28.556Z,6.90
2022-12-26T17:32:46.372Z,6.90
2022-12-26T17:38:48.946Z,6.80
2022-12-26T17:44:51.163Z,6.80
2022-12-26T17:50:59.418Z,6.80
2022-12-26T17:57:02.209Z,6.80
2022-12-26T18:03:04.306Z,6.80
2022-12-26T18:09:07.117Z,6.70
2022-12-26T18:15:09.384Z,6.60
2022-12-26T18:21:13.864Z,6.50
2022-12-26T18:27:37.827Z,6.50
2022-12-26T18:33:40.070Z,6.40
2022-12-26T18:39:42.473Z,6.40
2022-12-26T18:45:45.195Z,6.40
2022-12-26T18:51:49.124Z,6.30
2022-12-26T18:57:52.747Z,6.30
2022-12-26T19:03:55.795Z,6.20
2022-12-26T19:09:59.813Z,6.20
2022-12-26T19:16:02.200Z,6.10
2022-12-26T19:22:05.434Z,6.10
2022-12-26T19:28:07.792Z,6.10
2022-12-26T19:34:10.671Z,6.00
2022-12-26T19:40:19.726Z,6.00
2022-12-26T19:46:26.140Z,5.90
2022-12-26T19:52:29.620Z,5.90
2022-12-26T19:58:32.532Z,5.80
2022-12-26T20:04:34.890Z,5.70
2022-12-26T20:10:37.655Z,5.70
2022-12-26T20:17:05.129Z,5.70
2022-12-26T20:23:02.270Z,5.60
2022-12-26T20:29:05.480Z,5.60
2022-12-26T20:35:08.256Z,5.50
2022-12-26T20:41:11.264Z,5.50
2022-12-26T20:47:13.525Z,5.50
2022-12-26T20:53:15.926Z,5.50
2022-12-26T20:59:18.250Z,5.50
2022-12-26T21:05:20.825Z,5.40
2022-12-26T21:11:25.853Z,5.30
2022-12-26T21:17:28.270Z,5.40
2022-12-26T21:23:30.635Z,5.40
2022-12-26T21:29:34.733Z,5.40
2022-12-26T21:35:37.962Z,5.50
2022-12-26T21:41:41.197Z,5.50
2022-12-26T21:47:43.541Z,5.40
2022-12-26T21:53:46.919Z,5.40
2022-12-26T21:59:59.514Z,5.30
2022-12-26T22:06:02.327Z,5.20
2022-12-26T22:12:23.631Z,5.20
2022-12-26T22:18:26.751Z,5.20
2022-12-26T22:24:29.028Z,5.10
2022-12-26T22:30:31.934Z,5.00
2022-12-26T22:36:35.658Z,4.90
2022-12-26T22:42:37.644Z,4.90
2022-12-26T22:48:40.323Z,4.90
2022-12-26T22:54:43.931Z,4.90
2022-12-26T23:00:47.134Z,4.80
2022-12-26T23:06:49.571Z,4.80
2022-12-26T23:12:52.581Z,4.70
2022-12-26T23:19:44.578Z,4.70
2022-12-26T23:25:46.848Z,4.70
2022-12-26T23:31:48.945Z,4.70
2022-12-26T23:37:52.088Z,4.70
2022-12-26T23:43:54.556Z,4.70
2022-12-26T23:49:56.772Z,4.80
2022-12-26T23:55:59.326Z,4.70
